Main page
METAR-TAF:

METAR-TAF

Airports :

Hrodna Airport

Grodno, Belarus

latitude: 53-36-06N, longitude: 024-03-18E, elevation: 135 m

Current weather observation

The report was made 24 minutes ago, at 03:00 UTC
Calm wind
Temperature 16°C
Humidity 94%
Pressure 1016 hPa
Visibility: 7000 m
Shallow fog

METAR: UMMG 200300Z 00000MPS 7000 MIFG NSC 16/15 Q1016 NOSIG

Time: 06:24 (03:24 UTC)

Forecast

The report was made 13 hours and 24 minutes ago, at 14:00 UTC
Forecast valid from 19 at 15 UTC to 19 at 24 UTC
Wind 12 kt from the West
Visibility 10 km or more
Broken clouds at a height of 2000 ft

TAF: UMMG 191400Z 1915/1924 28006MPS 9999 BKN020

Weather observations and forecasts of more than 4000 airports (METAR and TAF reports).

The available stations are represented by yellow and red dots on the map.

Hover mouse over dot to see the name of the station.

Then click to see weather observations and forecasts.

To change the map : click on the green buttons with a black cross to zoom in, on the green button with a dash to zoom out, or on the green arrows for adjacent maps.


METAR-TAF: